Time;durP1;ratioP1;P1;durP2;ratioP2;P2;SDS_P1;SDS_P2;PMS_P1;PMS_P2;Temp;Humidity;BMP_temperature;BMP_pressure;BME280_temperature;BME280_humidity;BME280_pressure;Samples;Min_cycle;Max_cycle;Signal;HPM_P1;HPM_P2
2020/07/18 10:04:27;;;;;;;2.65;2.45;;;;;;;21.58;62.35352;95565.78;;;;
2020/07/18 10:05:28;;;;;;;2.65;2.45;;;;;;;21.58;62.35352;95565.78;;;;
2020/07/18 10:06:28;;;;;;;2.65;2.45;;;;;;;21.58;62.35352;95565.78;;;;
2020/07/18 10:07:29;;;;;;;2.65;2.45;;;;;;;21.58;62.35352;95565.78;;;;
2020/07/18 10:08:30;;;;;;;2.65;2.45;;;;;;;21.58;62.35352;95565.78;;;;
2020/07/18 10:09:30;;;;;;;2.65;2.45;;;;;;;21.58;62.35352;95565.78;;;;
2020/07/18 10:10:30;;;;;;;2.65;2.45;;;;;;;21.58;62.35352;95565.78;;;;
2020/07/18 10:11:31;;;;;;;2.65;2.45;;;;;;;21.58;62.35352;95565.78;;;;
2020/07/18 10:12:32;;;;;;;2.65;2.45;;;;;;;21.58;62.35352;95565.78;;;;
2020/07/18 10:13:32;;;;;;;2.65;2.45;;;;;;;21.58;62.35352;95565.78;;;;
2020/07/18 10:14:33;;;;;;;3.199999;2.7;;;;;;;24.16;62.16992;95525.9;;;;
2020/07/18 10:15:33;;;;;;;3.199999;2.7;;;;;;;24.16;62.16992;95525.9;;;;
2020/07/18 10:16:34;;;;;;;3.199999;2.7;;;;;;;24.16;62.16992;95525.9;;;;
2020/07/18 10:17:34;;;;;;;3.199999;2.7;;;;;;;24.16;62.16992;95525.9;;;;
2020/07/18 10:18:35;;;;;;;3.199999;2.7;;;;;;;24.16;62.16992;95525.9;;;;
2020/07/18 10:19:41;;;;;;;3.199999;2.7;;;;;;;24.16;62.16992;95525.9;;;;
2020/07/18 10:20:41;;;;;;;3.199999;2.7;;;;;;;24.16;62.16992;95525.9;;;;
2020/07/18 10:21:42;;;;;;;3.199999;2.7;;;;;;;24.16;62.16992;95525.9;;;;
2020/07/18 10:22:43;;;;;;;3.199999;2.7;;;;;;;24.16;62.16992;95525.9;;;;
2020/07/18 10:23:44;;;;;;;3.199999;2.7;;;;;;;24.16;62.16992;95525.9;;;;
2020/07/18 10:24:44;;;;;;;3.199999;2.7;;;;;;;24.16;62.16992;95525.9;;;;
2020/07/18 10:25:44;;;;;;;3.1;2.8;;;;;;;27.36;53.9668;95529.41;;;;
2020/07/18 10:26:45;;;;;;;3.1;2.8;;;;;;;27.36;53.9668;95529.41;;;;
2020/07/18 10:27:46;;;;;;;3.1;2.8;;;;;;;27.36;53.9668;95529.41;;;;
2020/07/18 10:28:46;;;;;;;3.1;2.8;;;;;;;27.36;53.9668;95529.41;;;;
2020/07/18 10:29:47;;;;;;;3.1;2.8;;;;;;;27.36;53.9668;95529.41;;;;
2020/07/18 10:30:47;;;;;;;3.1;2.8;;;;;;;27.36;53.9668;95529.41;;;;
2020/07/18 10:31:52;;;;;;;3.1;2.8;;;;;;;27.36;53.9668;95529.41;;;;
2020/07/18 10:32:52;;;;;;;3.1;2.8;;;;;;;27.36;53.9668;95529.41;;;;
2020/07/18 10:33:53;;;;;;;3.1;2.8;;;;;;;27.36;53.9668;95529.41;;;;
2020/07/18 10:46:31;;;;;;;2.9;2.4;;;;;;;33.26;44.53906;95518.5;;;;
2020/07/18 10:47:32;;;;;;;2.9;2.4;;;;;;;33.26;44.53906;95518.5;;;;
2020/07/18 10:48:32;;;;;;;2.9;2.4;;;;;;;33.26;44.53906;95518.5;;;;
2020/07/18 10:49:34;;;;;;;2.9;2.4;;;;;;;33.26;44.53906;95518.5;;;;
2020/07/18 10:50:35;;;;;;;2.9;2.4;;;;;;;33.26;44.53906;95518.5;;;;
2020/07/18 10:51:35;;;;;;;2.9;2.4;;;;;;;33.26;44.53906;95518.5;;;;
2020/07/18 10:52:38;;;;;;;2.9;2.4;;;;;;;33.26;44.53906;95518.5;;;;
2020/07/18 10:53:39;;;;;;;2.9;2.4;;;;;;;33.26;44.53906;95518.5;;;;
2020/07/18 10:54:39;;;;;;;2.9;2.4;;;;;;;33.26;44.53906;95518.5;;;;
2020/07/18 10:55:40;;;;;;;2.9;2.4;;;;;;;33.26;44.53906;95518.5;;;;
2020/07/18 10:56:41;;;;;;;2.9;2.4;;;;;;;33.26;44.53906;95518.5;;;;
2020/07/18 10:57:41;;;;;;;2.9;2.4;;;;;;;33.26;44.53906;95518.5;;;;
2020/07/18 10:58:42;;;;;;;2.9;2.4;;;;;;;33.26;44.53906;95518.5;;;;
2020/07/18 10:59:42;;;;;;;2.9;2.4;;;;;;;33.26;44.53906;95518.5;;;;
2020/07/18 11:00:43;;;;;;;2.9;2.4;;;;;;;33.26;44.53906;95518.5;;;;
2020/07/18 11:01:43;;;;;;;2.9;2.4;;;;;;;33.26;44.53906;95518.5;;;;
2020/07/18 11:02:44;;;;;;;2.9;2.4;;;;;;;33.26;44.53906;95518.5;;;;
2020/07/18 11:03:44;;;;;;;2.9;2.4;;;;;;;33.26;44.53906;95518.5;;;;
2020/07/18 11:04:45;;;;;;;2.9;2.4;;;;;;;33.26;44.53906;95518.5;;;;
2020/07/18 11:05:46;;;;;;;2.9;2.4;;;;;;;33.26;44.53906;95518.5;;;;
2020/07/18 11:06:46;;;;;;;2.9;2.4;;;;;;;33.26;44.53906;95518.5;;;;
2020/07/18 11:07:47;;;;;;;2.9;2.4;;;;;;;33.26;44.53906;95518.5;;;;
2020/07/18 11:08:47;;;;;;;2.9;2.4;;;;;;;33.26;44.53906;95518.5;;;;
2020/07/18 11:09:48;;;;;;;2.9;2.4;;;;;;;33.26;44.53906;95518.5;;;;
2020/07/18 11:10:48;;;;;;;2.9;2.4;;;;;;;33.26;44.53906;95518.5;;;;
2020/07/18 11:11:49;;;;;;;2.9;2.4;;;;;;;33.26;44.53906;95518.5;;;;
2020/07/18 11:12:49;;;;;;;2.9;2.4;;;;;;;33.26;44.53906;95518.5;;;;
2020/07/18 11:13:50;;;;;;;2.9;2.4;;;;;;;33.26;44.53906;95518.5;;;;
2020/07/18 11:14:50;;;;;;;2.9;2.4;;;;;;;33.26;44.53906;95518.5;;;;
2020/07/18 11:15:51;;;;;;;2.9;2.4;;;;;;;33.26;44.53906;95518.5;;;;
2020/07/18 11:16:51;;;;;;;2.9;2.4;;;;;;;33.26;44.53906;95518.5;;;;
2020/07/18 11:17:52;;;;;;;2.9;2.4;;;;;;;33.26;44.53906;95518.5;;;;
2020/07/18 11:18:53;;;;;;;2.9;2.4;;;;;;;33.26;44.53906;95518.5;;;;
2020/07/18 11:19:54;;;;;;;2.9;2.4;;;;;;;33.26;44.53906;95518.5;;;;
2020/07/18 11:20:54;;;;;;;2.9;2.4;;;;;;;33.26;44.53906;95518.5;;;;
2020/07/18 11:21:55;;;;;;;2.9;2.4;;;;;;;33.26;44.53906;95518.5;;;;
2020/07/18 11:22:55;;;;;;;2.9;2.4;;;;;;;33.26;44.53906;95518.5;;;;
2020/07/18 11:23:56;;;;;;;2.899999;2.45;;;;;;;29.98;35.52441;95503.34;;;;
2020/07/18 11:24:56;;;;;;;2.899999;2.45;;;;;;;29.98;35.52441;95503.34;;;;
2020/07/18 11:25:57;;;;;;;2.899999;2.45;;;;;;;29.98;35.52441;95503.34;;;;
2020/07/18 11:26:57;;;;;;;2.899999;2.45;;;;;;;29.98;35.52441;95503.34;;;;
2020/07/18 11:27:58;;;;;;;4.25;2.4;;;;;;;27.98;40.4082;95504.3;;;;
2020/07/18 11:28:58;;;;;;;2.5;2.3;;;;;;;27.34;40.23926;95503.4;;;;
2020/07/18 11:29:59;;;;;;;2.5;2.3;;;;;;;27.34;40.23926;95503.4;;;;
2020/07/18 11:30:59;;;;;;;2.5;2.3;;;;;;;27.34;40.23926;95503.4;;;;
2020/07/18 11:32:00;;;;;;;2.5;2.3;;;;;;;27.34;40.23926;95503.4;;;;
2020/07/18 11:33:00;;;;;;;2.5;2.3;;;;;;;27.34;40.23926;95503.4;;;;
2020/07/18 11:34:01;;;;;;;2.95;2.4;;;;;;;26.84;40.73145;95493.79;;;;
2020/07/18 11:35:01;;;;;;;2.95;2.4;;;;;;;26.84;40.73145;95493.79;;;;
2020/07/18 11:36:02;;;;;;;2.8;2.3;;;;;;;26.51;42.63965;95489.81;;;;
2020/07/18 11:37:02;;;;;;;2.5;2.3;;;;;;;25.9;45.93652;95504.08;;;;
2020/07/18 11:38:03;;;;;;;2.65;2.4;;;;;;;25.66;48.55859;95498.64;;;;
2020/07/18 11:39:03;;;;;;;2.65;2.4;;;;;;;25.66;48.55859;95498.64;;;;
2020/07/18 11:40:04;;;;;;;2.9;2.5;;;;;;;25.96;45.89746;95501.37;;;;
2020/07/18 11:41:05;;;;;;;2.9;2.5;;;;;;;25.96;45.89746;95501.37;;;;
2020/07/18 11:42:05;;;;;;;2.9;2.5;;;;;;;25.96;45.89746;95501.37;;;;
2020/07/18 11:43:06;;;;;;;2.5;2.3;;;;;;;25.76;48.76855;95495.15;;;;
2020/07/18 11:44:06;;;;;;;2.5;2.3;;;;;;;25.76;48.76855;95495.15;;;;
2020/07/18 11:45:07;;;;;;;3.049999;2.5;;;;;;;26.12;44.71777;95492.46;;;;
2020/07/18 11:46:11;;;;;;;3.049999;2.5;;;;;;;26.12;44.71777;95492.46;;;;
2020/07/18 11:47:11;;;;;;;3.049999;2.5;;;;;;;26.12;44.71777;95492.46;;;;
2020/07/18 11:48:12;;;;;;;3.049999;2.5;;;;;;;26.12;44.71777;95492.46;;;;
2020/07/18 11:49:12;;;;;;;3.049999;2.5;;;;;;;26.12;44.71777;95492.46;;;;
2020/07/18 11:50:15;;;;;;;3.049999;2.5;;;;;;;26.12;44.71777;95492.46;;;;
2020/07/18 11:51:18;;;;;;;3.049999;2.5;;;;;;;26.12;44.71777;95492.46;;;;
2020/07/18 11:52:18;;;;;;;3.049999;2.5;;;;;;;26.12;44.71777;95492.46;;;;
2020/07/18 11:57:33;;;;;;;3.049999;2.5;;;;;;;26.12;44.71777;95492.46;;;;
2020/07/18 11:58:34;;;;;;;3.049999;2.5;;;;;;;26.12;44.71777;95492.46;;;;
2020/07/18 11:59:35;;;;;;;3.049999;2.5;;;;;;;26.12;44.71777;95492.46;;;;
2020/07/18 12:00:35;;;;;;;3.049999;2.5;;;;;;;26.12;44.71777;95492.46;;;;
2020/07/18 12:01:36;;;;;;;3.049999;2.5;;;;;;;26.12;44.71777;95492.46;;;;
2020/07/18 12:02:36;;;;;;;3.049999;2.5;;;;;;;26.12;44.71777;95492.46;;;;
2020/07/18 12:03:37;;;;;;;3.049999;2.5;;;;;;;26.12;44.71777;95492.46;;;;
2020/07/18 12:04:38;;;;;;;3.049999;2.5;;;;;;;26.12;44.71777;95492.46;;;;
2020/07/18 12:05:38;;;;;;;3.049999;2.5;;;;;;;26.12;44.71777;95492.46;;;;
2020/07/18 12:06:39;;;;;;;3.049999;2.5;;;;;;;26.12;44.71777;95492.46;;;;
2020/07/18 12:07:39;;;;;;;3.049999;2.5;;;;;;;26.12;44.71777;95492.46;;;;
2020/07/18 12:08:40;;;;;;;2.6;2.4;;;;;;;25.91;45.31055;95466.13;;;;
2020/07/18 12:09:40;;;;;;;2.6;2.4;;;;;;;25.91;45.31055;95466.13;;;;
2020/07/18 12:10:43;;;;;;;2.6;2.4;;;;;;;25.91;45.31055;95466.13;;;;
2020/07/18 12:11:43;;;;;;;2.6;2.4;;;;;;;25.91;45.31055;95466.13;;;;
2020/07/18 12:12:44;;;;;;;2.6;2.4;;;;;;;25.91;45.31055;95466.13;;;;
2020/07/18 12:13:44;;;;;;;2.6;2.4;;;;;;;25.91;45.31055;95466.13;;;;
2020/07/18 12:14:45;;;;;;;2.6;2.4;;;;;;;25.91;45.31055;95466.13;;;;
2020/07/18 12:15:45;;;;;;;2.6;2.4;;;;;;;25.91;45.31055;95466.13;;;;
2020/07/18 12:16:46;;;;;;;2.6;2.4;;;;;;;25.91;45.31055;95466.13;;;;
2020/07/18 12:17:47;;;;;;;2.6;2.4;;;;;;;25.91;45.31055;95466.13;;;;
2020/07/18 12:18:47;;;;;;;3.95;2.7;;;;;;;24.04;46.81543;95458.87;;;;
2020/07/18 12:19:48;;;;;;;3.95;2.7;;;;;;;24.04;46.81543;95458.87;;;;
2020/07/18 12:20:48;;;;;;;3.95;2.7;;;;;;;24.04;46.81543;95458.87;;;;
2020/07/18 12:21:49;;;;;;;3.95;2.7;;;;;;;24.04;46.81543;95458.87;;;;
2020/07/18 12:22:50;;;;;;;3.95;2.7;;;;;;;24.04;46.81543;95458.87;;;;
2020/07/18 12:23:50;;;;;;;3.95;2.7;;;;;;;24.04;46.81543;95458.87;;;;
2020/07/18 12:24:51;;;;;;;3.95;2.7;;;;;;;24.04;46.81543;95458.87;;;;
2020/07/18 12:25:51;;;;;;;3.95;2.7;;;;;;;24.04;46.81543;95458.87;;;;
2020/07/18 12:26:52;;;;;;;3.95;2.7;;;;;;;24.04;46.81543;95458.87;;;;
2020/07/18 12:27:52;;;;;;;3.95;2.7;;;;;;;24.04;46.81543;95458.87;;;;
2020/07/18 12:28:53;;;;;;;3.95;2.7;;;;;;;24.04;46.81543;95458.87;;;;
2020/07/18 12:29:53;;;;;;;3.250001;2.5;;;;;;;22.47;49.19922;95470.2;;;;
2020/07/18 12:30:54;;;;;;;3.250001;2.5;;;;;;;22.47;49.19922;95470.2;;;;
2020/07/18 12:31:54;;;;;;;3.250001;2.5;;;;;;;22.47;49.19922;95470.2;;;;
2020/07/18 12:32:55;;;;;;;3.250001;2.5;;;;;;;22.47;49.19922;95470.2;;;;
2020/07/18 12:33:56;;;;;;;3.250001;2.5;;;;;;;22.47;49.19922;95470.2;;;;
2020/07/18 12:34:56;;;;;;;3.250001;2.5;;;;;;;22.47;49.19922;95470.2;;;;
2020/07/18 12:35:57;;;;;;;3.250001;2.5;;;;;;;22.47;49.19922;95470.2;;;;
2020/07/18 12:36:57;;;;;;;3.250001;2.5;;;;;;;22.47;49.19922;95470.2;;;;
2020/07/18 12:37:58;;;;;;;3.250001;2.5;;;;;;;22.47;49.19922;95470.2;;;;
2020/07/18 12:38:58;;;;;;;3.250001;2.5;;;;;;;22.47;49.19922;95470.2;;;;
2020/07/18 12:39:59;;;;;;;3.5;3.2;;;;;;;21.38;50.78125;95471.84;;;;
2020/07/18 12:40:59;;;;;;;3.5;3.2;;;;;;;21.38;50.78125;95471.84;;;;
2020/07/18 12:42:00;;;;;;;3.5;3.2;;;;;;;21.38;50.78125;95471.84;;;;
2020/07/18 12:43:00;;;;;;;3.5;3.2;;;;;;;21.38;50.78125;95471.84;;;;
2020/07/18 12:44:01;;;;;;;3.5;3.2;;;;;;;21.38;50.78125;95471.84;;;;
2020/07/18 12:45:01;;;;;;;3.5;3.2;;;;;;;21.38;50.78125;95471.84;;;;
2020/07/18 12:46:02;;;;;;;3.5;3.2;;;;;;;21.38;50.78125;95471.84;;;;
2020/07/18 12:47:03;;;;;;;3.5;3.2;;;;;;;21.38;50.78125;95471.84;;;;
2020/07/18 12:48:03;;;;;;;3.5;3.2;;;;;;;21.38;50.78125;95471.84;;;;
2020/07/18 12:49:04;;;;;;;3.5;3.2;;;;;;;21.38;50.78125;95471.84;;;;
2020/07/18 12:50:04;;;;;;;3.5;3.2;;;;;;;21.38;50.78125;95471.84;;;;
2020/07/18 12:51:05;;;;;;;3.45;3.25;;;;;;;21.08;51.6084;95464.31;;;;
2020/07/18 12:52:05;;;;;;;3.45;3.25;;;;;;;21.08;51.6084;95464.31;;;;
2020/07/18 12:53:06;;;;;;;3.45;3.25;;;;;;;21.08;51.6084;95464.31;;;;
2020/07/18 12:54:07;;;;;;;3.45;3.25;;;;;;;21.08;51.6084;95464.31;;;;
2020/07/18 12:55:07;;;;;;;3.45;3.25;;;;;;;21.08;51.6084;95464.31;;;;
2020/07/18 12:56:09;;;;;;;3.45;3.25;;;;;;;21.08;51.6084;95464.31;;;;
2020/07/18 12:57:10;;;;;;;3.45;3.25;;;;;;;21.08;51.6084;95464.31;;;;
2020/07/18 12:58:10;;;;;;;3.45;3.25;;;;;;;21.08;51.6084;95464.31;;;;
2020/07/18 12:59:11;;;;;;;3.45;3.25;;;;;;;21.08;51.6084;95464.31;;;;
2020/07/18 13:00:11;;;;;;;3.45;3.25;;;;;;;21.08;51.6084;95464.31;;;;
2020/07/18 13:01:12;;;;;;;3.95;3.2;;;;;;;21.84;51.88379;95468.24;;;;
2020/07/18 13:12:06;;;;;;;4.65;3.2;;;;;;;22.79;51.08594;95466.39;;;;
2020/07/18 13:13:09;;;;;;;4.65;3.2;;;;;;;22.79;51.08594;95466.39;;;;
2020/07/18 13:14:10;;;;;;;4.65;3.2;;;;;;;22.79;51.08594;95466.39;;;;
2020/07/18 13:15:10;;;;;;;4.65;3.2;;;;;;;22.79;51.08594;95466.39;;;;
2020/07/18 13:16:11;;;;;;;4.65;3.2;;;;;;;22.79;51.08594;95466.39;;;;
2020/07/18 13:17:11;;;;;;;4.65;3.2;;;;;;;22.79;51.08594;95466.39;;;;
2020/07/18 13:18:13;;;;;;;4.65;3.2;;;;;;;22.79;51.08594;95466.39;;;;
2020/07/18 13:19:13;;;;;;;4.65;3.2;;;;;;;22.79;51.08594;95466.39;;;;
2020/07/18 13:20:14;;;;;;;4.65;3.2;;;;;;;22.79;51.08594;95466.39;;;;
2020/07/18 13:21:14;;;;;;;4.65;3.2;;;;;;;22.79;51.08594;95466.39;;;;
2020/07/18 13:22:15;;;;;;;4.65;3.2;;;;;;;22.79;51.08594;95466.39;;;;
2020/07/18 13:23:15;;;;;;;3.6;3.3;;;;;;;23.06;50.71777;95462.59;;;;
2020/07/18 13:24:17;;;;;;;3.6;3.3;;;;;;;23.06;50.71777;95462.59;;;;
2020/07/18 13:25:17;;;;;;;3.6;3.3;;;;;;;23.06;50.71777;95462.59;;;;
2020/07/18 13:26:18;;;;;;;3.6;3.3;;;;;;;23.06;50.71777;95462.59;;;;
2020/07/18 13:27:18;;;;;;;3.6;3.3;;;;;;;23.06;50.71777;95462.59;;;;
2020/07/18 13:28:19;;;;;;;3.6;3.3;;;;;;;23.06;50.71777;95462.59;;;;
2020/07/18 13:29:20;;;;;;;3.6;3.3;;;;;;;23.06;50.71777;95462.59;;;;
2020/07/18 13:30:20;;;;;;;3.6;3.3;;;;;;;23.06;50.71777;95462.59;;;;
2020/07/18 13:31:21;;;;;;;3.6;3.3;;;;;;;23.06;50.71777;95462.59;;;;
2020/07/18 13:32:21;;;;;;;3.6;3.3;;;;;;;23.06;50.71777;95462.59;;;;
2020/07/18 13:33:22;;;;;;;4.35;3.45;;;;;;;23.08;51.16309;95458.56;;;;
2020/07/18 13:34:22;;;;;;;4.35;3.45;;;;;;;23.08;51.16309;95458.56;;;;
2020/07/18 13:35:23;;;;;;;4.35;3.45;;;;;;;23.08;51.16309;95458.56;;;;
2020/07/18 13:36:23;;;;;;;4.35;3.45;;;;;;;23.08;51.16309;95458.56;;;;
2020/07/18 13:37:24;;;;;;;4.35;3.45;;;;;;;23.08;51.16309;95458.56;;;;
2020/07/18 13:38:24;;;;;;;4.35;3.45;;;;;;;23.08;51.16309;95458.56;;;;
2020/07/18 13:39:25;;;;;;;4.35;3.45;;;;;;;23.08;51.16309;95458.56;;;;
2020/07/18 13:40:26;;;;;;;4.35;3.45;;;;;;;23.08;51.16309;95458.56;;;;
2020/07/18 13:41:26;;;;;;;4.35;3.45;;;;;;;23.08;51.16309;95458.56;;;;
2020/07/18 13:42:27;;;;;;;4.35;3.45;;;;;;;23.08;51.16309;95458.56;;;;
2020/07/18 13:43:27;;;;;;;4.35;3.45;;;;;;;23.08;51.16309;95458.56;;;;
2020/07/18 13:44:28;;;;;;;3.65;3.35;;;;;;;22.9;51.8291;95446.73;;;;
2020/07/18 13:45:28;;;;;;;3.65;3.35;;;;;;;22.9;51.8291;95446.73;;;;
2020/07/18 13:46:29;;;;;;;3.65;3.35;;;;;;;22.9;51.8291;95446.73;;;;
2020/07/18 13:47:29;;;;;;;3.65;3.35;;;;;;;22.9;51.8291;95446.73;;;;
2020/07/18 13:48:30;;;;;;;3.65;3.35;;;;;;;22.9;51.8291;95446.73;;;;
2020/07/18 13:49:30;;;;;;;3.65;3.35;;;;;;;22.9;51.8291;95446.73;;;;
2020/07/18 13:50:31;;;;;;;3.65;3.35;;;;;;;22.9;51.8291;95446.73;;;;
2020/07/18 13:51:31;;;;;;;3.65;3.35;;;;;;;22.9;51.8291;95446.73;;;;
2020/07/18 13:52:32;;;;;;;3.65;3.35;;;;;;;22.9;51.8291;95446.73;;;;
2020/07/18 13:53:32;;;;;;;3.65;3.35;;;;;;;22.9;51.8291;95446.73;;;;
2020/07/18 13:54:33;;;;;;;3.75;3.45;;;;;;;22.54;52.57324;95453.13;;;;
2020/07/18 13:55:33;;;;;;;3.75;3.45;;;;;;;22.54;52.57324;95453.13;;;;
2020/07/18 13:56:34;;;;;;;3.75;3.45;;;;;;;22.54;52.57324;95453.13;;;;
2020/07/18 13:57:34;;;;;;;3.75;3.45;;;;;;;22.54;52.57324;95453.13;;;;
2020/07/18 13:58:35;;;;;;;3.75;3.45;;;;;;;22.54;52.57324;95453.13;;;;
2020/07/18 13:59:35;;;;;;;3.75;3.45;;;;;;;22.54;52.57324;95453.13;;;;
2020/07/18 14:00:36;;;;;;;3.75;3.45;;;;;;;22.54;52.57324;95453.13;;;;
2020/07/18 14:01:36;;;;;;;3.75;3.45;;;;;;;22.54;52.57324;95453.13;;;;
2020/07/18 14:02:37;;;;;;;3.75;3.45;;;;;;;22.54;52.57324;95453.13;;;;
2020/07/18 14:03:37;;;;;;;3.75;3.45;;;;;;;22.54;52.57324;95453.13;;;;
2020/07/18 14:04:38;;;;;;;3.75;3.45;;;;;;;22.54;52.57324;95453.13;;;;
2020/07/18 14:05:38;;;;;;;3.7;3.4;;;;;;;21.96;53.1582;95450.54;;;;
2020/07/18 14:06:39;;;;;;;3.7;3.4;;;;;;;21.96;53.1582;95450.54;;;;
2020/07/18 14:07:40;;;;;;;3.7;3.4;;;;;;;21.96;53.1582;95450.54;;;;
2020/07/18 14:08:40;;;;;;;3.7;3.4;;;;;;;21.96;53.1582;95450.54;;;;
2020/07/18 14:09:41;;;;;;;3.7;3.4;;;;;;;21.96;53.1582;95450.54;;;;
2020/07/18 14:10:42;;;;;;;3.7;3.4;;;;;;;21.96;53.1582;95450.54;;;;
2020/07/18 14:11:42;;;;;;;3.7;3.4;;;;;;;21.96;53.1582;95450.54;;;;
2020/07/18 14:12:43;;;;;;;3.7;3.4;;;;;;;21.96;53.1582;95450.54;;;;
2020/07/18 14:13:43;;;;;;;3.7;3.4;;;;;;;21.96;53.1582;95450.54;;;;
2020/07/18 14:14:44;;;;;;;3.7;3.4;;;;;;;21.96;53.1582;95450.54;;;;
2020/07/18 14:15:44;;;;;;;4.3;3.9;;;;;;;21.68;54.19531;95434.91;;;;
2020/07/18 14:16:45;;;;;;;4.3;3.9;;;;;;;21.68;54.19531;95434.91;;;;
2020/07/18 14:17:45;;;;;;;4.3;3.9;;;;;;;21.68;54.19531;95434.91;;;;
2020/07/18 14:18:45;;;;;;;4.3;3.9;;;;;;;21.68;54.19531;95434.91;;;;
2020/07/18 14:19:46;;;;;;;4.3;3.9;;;;;;;21.68;54.19531;95434.91;;;;
2020/07/18 14:20:46;;;;;;;4.3;3.9;;;;;;;21.68;54.19531;95434.91;;;;
2020/07/18 14:21:47;;;;;;;4.3;3.9;;;;;;;21.68;54.19531;95434.91;;;;
2020/07/18 14:22:48;;;;;;;4.3;3.9;;;;;;;21.68;54.19531;95434.91;;;;
2020/07/18 14:23:48;;;;;;;4.3;3.9;;;;;;;21.68;54.19531;95434.91;;;;
2020/07/18 14:24:49;;;;;;;4.3;3.9;;;;;;;21.68;54.19531;95434.91;;;;
2020/07/18 14:25:49;;;;;;;4.3;3.9;;;;;;;21.68;54.19531;95434.91;;;;
2020/07/18 14:26:50;;;;;;;4.15;3.8;;;;;;;22.13;55.34473;95440.3;;;;
2020/07/18 14:27:50;;;;;;;4.15;3.8;;;;;;;22.13;55.34473;95440.3;;;;
2020/07/18 14:28:51;;;;;;;4.15;3.8;;;;;;;22.13;55.34473;95440.3;;;;
2020/07/18 14:29:51;;;;;;;4.15;3.8;;;;;;;22.13;55.34473;95440.3;;;;
2020/07/18 14:30:52;;;;;;;4.15;3.8;;;;;;;22.13;55.34473;95440.3;;;;
2020/07/18 14:31:52;;;;;;;4.15;3.8;;;;;;;22.13;55.34473;95440.3;;;;
2020/07/18 14:32:53;;;;;;;4.15;3.8;;;;;;;22.13;55.34473;95440.3;;;;
2020/07/18 14:33:53;;;;;;;4.15;3.8;;;;;;;22.13;55.34473;95440.3;;;;
2020/07/18 14:34:54;;;;;;;4.15;3.8;;;;;;;22.13;55.34473;95440.3;;;;
2020/07/18 14:35:55;;;;;;;4.15;3.8;;;;;;;22.13;55.34473;95440.3;;;;
2020/07/18 14:36:55;;;;;;;4.05;3.65;;;;;;;22.94;54.18164;95439.08;;;;
2020/07/18 14:37:56;;;;;;;4.05;3.65;;;;;;;22.94;54.18164;95439.08;;;;
2020/07/18 14:38:56;;;;;;;4.05;3.65;;;;;;;22.94;54.18164;95439.08;;;;
2020/07/18 14:39:57;;;;;;;4.05;3.65;;;;;;;22.94;54.18164;95439.08;;;;
2020/07/18 14:40:58;;;;;;;4.05;3.65;;;;;;;22.94;54.18164;95439.08;;;;
2020/07/18 14:41:58;;;;;;;4.05;3.65;;;;;;;22.94;54.18164;95439.08;;;;
2020/07/18 14:42:59;;;;;;;4.05;3.65;;;;;;;22.94;54.18164;95439.08;;;;
2020/07/18 14:43:59;;;;;;;4.05;3.65;;;;;;;22.94;54.18164;95439.08;;;;
2020/07/18 14:44:59;;;;;;;4.05;3.65;;;;;;;22.94;54.18164;95439.08;;;;
2020/07/18 14:46:00;;;;;;;4.05;3.65;;;;;;;22.94;54.18164;95439.08;;;;
2020/07/18 14:47:01;;;;;;;4.05;3.65;;;;;;;22.94;54.18164;95439.08;;;;
2020/07/18 14:48:01;;;;;;;3.900001;3.6;;;;;;;23.28;53.93457;95438.01;;;;
2020/07/18 14:49:02;;;;;;;3.900001;3.6;;;;;;;23.28;53.93457;95438.01;;;;
2020/07/18 14:50:02;;;;;;;3.900001;3.6;;;;;;;23.28;53.93457;95438.01;;;;
2020/07/18 14:51:03;;;;;;;3.900001;3.6;;;;;;;23.28;53.93457;95438.01;;;;
2020/07/18 14:52:04;;;;;;;3.900001;3.6;;;;;;;23.28;53.93457;95438.01;;;;
2020/07/18 14:53:04;;;;;;;3.900001;3.6;;;;;;;23.28;53.93457;95438.01;;;;
2020/07/18 14:54:05;;;;;;;3.900001;3.6;;;;;;;23.28;53.93457;95438.01;;;;
2020/07/18 14:55:05;;;;;;;3.900001;3.6;;;;;;;23.28;53.93457;95438.01;;;;
2020/07/18 14:56:06;;;;;;;3.900001;3.6;;;;;;;23.28;53.93457;95438.01;;;;
2020/07/18 14:57:07;;;;;;;3.900001;3.6;;;;;;;23.28;53.93457;95438.01;;;;
2020/07/18 14:58:08;;;;;;;4.65;3.75;;;;;;;23.32;54.07324;95438.06;;;;
2020/07/18 14:59:08;;;;;;;4.65;3.75;;;;;;;23.32;54.07324;95438.06;;;;
2020/07/18 15:00:13;;;;;;;4.65;3.75;;;;;;;23.32;54.07324;95438.06;;;;
2020/07/18 15:01:14;;;;;;;4.65;3.75;;;;;;;23.32;54.07324;95438.06;;;;
2020/07/18 15:02:14;;;;;;;4.65;3.75;;;;;;;23.32;54.07324;95438.06;;;;
2020/07/18 15:03:16;;;;;;;4.65;3.75;;;;;;;23.32;54.07324;95438.06;;;;
2020/07/18 15:04:17;;;;;;;4.65;3.75;;;;;;;23.32;54.07324;95438.06;;;;
2020/07/18 15:05:17;;;;;;;4.65;3.75;;;;;;;23.32;54.07324;95438.06;;;;
2020/07/18 15:06:18;;;;;;;4.65;3.75;;;;;;;23.32;54.07324;95438.06;;;;
2020/07/18 15:07:18;;;;;;;4.65;3.75;;;;;;;23.32;54.07324;95438.06;;;;
2020/07/18 15:08:19;;;;;;;4.099999;3.6;;;;;;;23.18;54.24414;95441.4;;;;
2020/07/18 15:09:19;;;;;;;4.099999;3.6;;;;;;;23.18;54.24414;95441.4;;;;
2020/07/18 15:10:20;;;;;;;4.099999;3.6;;;;;;;23.18;54.24414;95441.4;;;;
2020/07/18 15:11:20;;;;;;;4.099999;3.6;;;;;;;23.18;54.24414;95441.4;;;;
2020/07/18 15:12:21;;;;;;;4.099999;3.6;;;;;;;23.18;54.24414;95441.4;;;;
2020/07/18 15:13:21;;;;;;;4.099999;3.6;;;;;;;23.18;54.24414;95441.4;;;;
2020/07/18 15:14:22;;;;;;;4.099999;3.6;;;;;;;23.18;54.24414;95441.4;;;;
2020/07/18 15:15:23;;;;;;;4.099999;3.6;;;;;;;23.18;54.24414;95441.4;;;;
2020/07/18 15:16:23;;;;;;;4.099999;3.6;;;;;;;23.18;54.24414;95441.4;;;;
2020/07/18 15:17:24;;;;;;;4.099999;3.6;;;;;;;23.18;54.24414;95441.4;;;;
2020/07/18 15:18:24;;;;;;;4.099999;3.6;;;;;;;23.18;54.24414;95441.4;;;;
2020/07/18 15:19:25;;;;;;;6.15;4.699999;;;;;;;22.77;54.91504;95446.19;;;;
2020/07/18 15:20:25;;;;;;;6.15;4.699999;;;;;;;22.77;54.91504;95446.19;;;;
2020/07/18 15:21:26;;;;;;;6.15;4.699999;;;;;;;22.77;54.91504;95446.19;;;;
2020/07/18 15:22:26;;;;;;;6.15;4.699999;;;;;;;22.77;54.91504;95446.19;;;;
2020/07/18 15:23:27;;;;;;;6.15;4.699999;;;;;;;22.77;54.91504;95446.19;;;;
2020/07/18 15:24:27;;;;;;;6.15;4.699999;;;;;;;22.77;54.91504;95446.19;;;;
2020/07/18 15:25:28;;;;;;;6.15;4.699999;;;;;;;22.77;54.91504;95446.19;;;;
2020/07/18 15:26:28;;;;;;;6.15;4.699999;;;;;;;22.77;54.91504;95446.19;;;;
2020/07/18 15:27:29;;;;;;;6.15;4.699999;;;;;;;22.77;54.91504;95446.19;;;;
2020/07/18 15:28:30;;;;;;;6.15;4.699999;;;;;;;22.77;54.91504;95446.19;;;;
2020/07/18 15:29:30;;;;;;;3.95;3.65;;;;;;;22.27;55.22949;95432.9;;;;
2020/07/18 15:30:31;;;;;;;3.95;3.65;;;;;;;22.27;55.22949;95432.9;;;;
2020/07/18 15:31:35;;;;;;;3.95;3.65;;;;;;;22.27;55.22949;95432.9;;;;
2020/07/18 15:32:35;;;;;;;3.95;3.65;;;;;;;22.27;55.22949;95432.9;;;;
2020/07/18 15:33:36;;;;;;;3.95;3.65;;;;;;;22.27;55.22949;95432.9;;;;
2020/07/18 15:34:36;;;;;;;3.95;3.65;;;;;;;22.27;55.22949;95432.9;;;;
2020/07/18 15:35:37;;;;;;;3.95;3.65;;;;;;;22.27;55.22949;95432.9;;;;
2020/07/18 15:36:37;;;;;;;3.95;3.65;;;;;;;22.27;55.22949;95432.9;;;;
2020/07/18 15:37:38;;;;;;;3.95;3.65;;;;;;;22.27;55.22949;95432.9;;;;
2020/07/18 15:38:39;;;;;;;3.95;3.65;;;;;;;22.27;55.22949;95432.9;;;;
2020/07/18 15:39:39;;;;;;;3.95;3.65;;;;;;;22.27;55.22949;95432.9;;;;
2020/07/18 15:40:40;;;;;;;4.200001;3.85;;;;;;;22.33;55.02637;95429.86;;;;
2020/07/18 15:41:40;;;;;;;4.200001;3.85;;;;;;;22.33;55.02637;95429.86;;;;
2020/07/18 15:42:41;;;;;;;4.200001;3.85;;;;;;;22.33;55.02637;95429.86;;;;
2020/07/18 15:43:41;;;;;;;4.200001;3.85;;;;;;;22.33;55.02637;95429.86;;;;
2020/07/18 15:44:42;;;;;;;4.200001;3.85;;;;;;;22.33;55.02637;95429.86;;;;
2020/07/18 15:45:42;;;;;;;4.200001;3.85;;;;;;;22.33;55.02637;95429.86;;;;
2020/07/18 15:46:43;;;;;;;4.200001;3.85;;;;;;;22.33;55.02637;95429.86;;;;
2020/07/18 15:47:43;;;;;;;4.200001;3.85;;;;;;;22.33;55.02637;95429.86;;;;
2020/07/18 15:48:44;;;;;;;4.200001;3.85;;;;;;;22.33;55.02637;95429.86;;;;
2020/07/18 15:49:44;;;;;;;4.200001;3.85;;;;;;;22.33;55.02637;95429.86;;;;
2020/07/18 15:50:45;;;;;;;4.099999;3.8;;;;;;;22.54;54.48828;95440.16;;;;
2020/07/18 15:51:45;;;;;;;4.099999;3.8;;;;;;;22.54;54.48828;95440.16;;;;
2020/07/18 15:52:46;;;;;;;4.099999;3.8;;;;;;;22.54;54.48828;95440.16;;;;
2020/07/18 15:53:47;;;;;;;4.099999;3.8;;;;;;;22.54;54.48828;95440.16;;;;
2020/07/18 15:54:47;;;;;;;4.099999;3.8;;;;;;;22.54;54.48828;95440.16;;;;
2020/07/18 15:55:48;;;;;;;4.099999;3.8;;;;;;;22.54;54.48828;95440.16;;;;
2020/07/18 15:56:48;;;;;;;4.099999;3.8;;;;;;;22.54;54.48828;95440.16;;;;
2020/07/18 15:57:49;;;;;;;4.099999;3.8;;;;;;;22.54;54.48828;95440.16;;;;
2020/07/18 15:58:49;;;;;;;4.099999;3.8;;;;;;;22.54;54.48828;95440.16;;;;
2020/07/18 15:59:50;;;;;;;4.099999;3.8;;;;;;;22.54;54.48828;95440.16;;;;
2020/07/18 16:00:50;;;;;;;4.099999;3.8;;;;;;;22.54;54.48828;95440.16;;;;
2020/07/18 16:01:51;;;;;;;3.9;3.6;;;;;;;22.63;54.41211;95431.46;;;;
2020/07/18 16:02:51;;;;;;;3.9;3.6;;;;;;;22.63;54.41211;95431.46;;;;
2020/07/18 16:03:52;;;;;;;3.9;3.6;;;;;;;22.63;54.41211;95431.46;;;;
2020/07/18 16:04:52;;;;;;;3.9;3.6;;;;;;;22.63;54.41211;95431.46;;;;
2020/07/18 16:05:53;;;;;;;3.9;3.6;;;;;;;22.63;54.41211;95431.46;;;;
2020/07/18 16:06:54;;;;;;;3.9;3.6;;;;;;;22.63;54.41211;95431.46;;;;
2020/07/18 16:07:54;;;;;;;3.9;3.6;;;;;;;22.63;54.41211;95431.46;;;;
2020/07/18 16:08:55;;;;;;;3.9;3.6;;;;;;;22.63;54.41211;95431.46;;;;
2020/07/18 16:09:55;;;;;;;3.9;3.6;;;;;;;22.63;54.41211;95431.46;;;;
2020/07/18 16:10:59;;;;;;;3.9;3.6;;;;;;;22.63;54.41211;95431.46;;;;
2020/07/18 16:12:00;;;;;;;4.95;3.9;;;;;;;22.46;54.7207;95432.78;;;;
2020/07/18 16:13:00;;;;;;;4.95;3.9;;;;;;;22.46;54.7207;95432.78;;;;
2020/07/18 16:14:01;;;;;;;4.95;3.9;;;;;;;22.46;54.7207;95432.78;;;;